createdAt,value
2023-04-22T00:02:16.953Z,18.45
2023-04-22T00:04:46.483Z,19.90
2023-04-22T00:07:14.692Z,21.50
2023-04-22T00:09:41.922Z,20.95
2023-04-22T00:12:09.292Z,19.35
2023-04-22T00:14:35.978Z,16.02
2023-04-22T00:17:02.842Z,17.15
2023-04-22T00:19:29.890Z,17.45
2023-04-22T00:21:56.532Z,15.95
2023-04-22T00:24:23.118Z,16.92
2023-04-22T00:26:49.777Z,17.65
2023-04-22T00:29:16.406Z,16.35
2023-04-22T00:31:43.040Z,16.05
2023-04-22T00:34:09.810Z,15.85
2023-04-22T00:36:36.484Z,14.80
2023-04-22T00:39:03.247Z,16.52
2023-04-22T00:41:31.218Z,16.65
2023-04-22T00:43:59.811Z,15.05
2023-04-22T00:46:27.168Z,14.70
2023-04-22T00:48:54.208Z,15.38
2023-04-22T00:51:20.882Z,15.80
2023-04-22T00:53:47.716Z,16.90
2023-04-22T00:56:14.474Z,17.35
2023-04-22T00:58:41.358Z,16.50
2023-04-22T01:01:08.084Z,17.45
2023-04-22T01:03:38.752Z,18.80
2023-04-22T01:06:05.675Z,18.48
2023-04-22T01:08:33.117Z,19.25
2023-04-22T01:11:00.152Z,18.17
2023-04-22T01:13:26.946Z,19.33
2023-04-22T01:15:54.768Z,18.38
2023-04-22T01:18:21.965Z,18.60
2023-04-22T01:20:48.965Z,18.92
2023-04-22T01:23:22.301Z,16.60
2023-04-22T01:25:49.487Z,17.17
2023-04-22T01:28:17.020Z,18.02
2023-04-22T01:30:44.528Z,17.45
2023-04-22T01:33:11.997Z,21.30
2023-04-22T01:35:38.985Z,17.17
2023-04-22T01:38:10.041Z,17.50
2023-04-22T01:40:38.245Z,17.02
2023-04-22T01:43:05.255Z,15.52
2023-04-22T01:45:31.953Z,15.43
2023-04-22T01:47:58.657Z,15.65
2023-04-22T01:50:25.436Z,16.35
2023-04-22T01:52:52.247Z,18.65
2023-04-22T01:55:18.905Z,16.20
2023-04-22T01:57:45.639Z,16.88
2023-04-22T02:00:12.703Z,18.23
2023-04-22T02:02:39.569Z,15.05
2023-04-22T02:05:10.157Z,14.93
2023-04-22T02:07:38.132Z,13.77
2023-04-22T02:10:06.060Z,14.88
2023-04-22T02:12:32.716Z,15.15
2023-04-22T02:14:59.400Z,13.90
2023-04-22T02:17:26.411Z,16.15
2023-04-22T02:19:53.293Z,20.27
2023-04-22T02:22:20.093Z,19.08
2023-04-22T02:24:46.901Z,22.88
2023-04-22T02:27:13.534Z,20.33
2023-04-22T02:29:40.457Z,20.38
2023-04-22T02:32:07.544Z,23.75
2023-04-22T02:34:34.170Z,22.65
2023-04-22T02:37:00.990Z,21.73
2023-04-22T02:39:27.695Z,20.48
2023-04-22T02:41:54.636Z,19.70
2023-04-22T02:44:21.219Z,20.70
2023-04-22T02:46:47.925Z,20.20
2023-04-22T02:49:14.600Z,22.42
2023-04-22T02:51:41.235Z,19.88
2023-04-22T02:54:07.894Z,22.38
2023-04-22T02:56:34.562Z,22.65
2023-04-22T02:59:01.184Z,23.95
2023-04-22T03:01:27.903Z,23.98
2023-04-22T03:03:54.850Z,22.02
2023-04-22T03:06:21.740Z,21.27
2023-04-22T03:08:48.316Z,22.38
2023-04-22T03:11:14.964Z,22.35
2023-04-22T03:13:41.664Z,20.92
2023-04-22T03:16:09.325Z,23.05
2023-04-22T03:18:36.026Z,23.73
2023-04-22T03:21:02.889Z,22.85
2023-04-22T03:23:29.587Z,23.77
2023-04-22T03:25:56.210Z,23.48
2023-04-22T03:28:22.848Z,23.90
2023-04-22T03:30:49.518Z,25.90
2023-04-22T03:33:16.731Z,24.25
2023-04-22T03:35:43.424Z,23.60
2023-04-22T03:38:10.310Z,22.50
2023-04-22T03:40:36.964Z,22.17
2023-04-22T03:43:03.709Z,23.23
2023-04-22T03:45:30.461Z,27.42
2023-04-22T03:47:57.181Z,27.90
2023-04-22T03:50:23.943Z,26.98
2023-04-22T03:52:50.958Z,24.95
2023-04-22T03:55:17.736Z,24.92
2023-04-22T03:57:44.400Z,26.63
2023-04-22T04:00:11.473Z,24.65
2023-04-22T04:02:38.199Z,25.25
2023-04-22T04:05:05.564Z,28.85
2023-04-22T04:07:32.299Z,27.05
2023-04-22T04:09:58.906Z,28.40
2023-04-22T04:12:25.671Z,26.63
2023-04-22T04:14:52.331Z,29.00
2023-04-22T04:17:19.041Z,30.20
2023-04-22T04:19:45.796Z,30.60
2023-04-22T04:22:12.433Z,30.23
2023-04-22T04:24:42.083Z,31.20
2023-04-22T04:27:09.073Z,27.35
2023-04-22T04:29:36.893Z,29.90
2023-04-22T04:32:04.925Z,30.35
2023-04-22T04:34:34.669Z,31.17
2023-04-22T04:37:01.408Z,30.55
2023-04-22T04:39:29.210Z,31.10
2023-04-22T04:41:58.583Z,32.78
2023-04-22T04:44:28.118Z,33.30
2023-04-22T04:46:54.954Z,31.92
2023-04-22T04:49:21.972Z,33.38
2023-04-22T04:51:49.098Z,27.65
2023-04-22T04:54:16.161Z,28.85
2023-04-22T04:56:43.179Z,29.77
2023-04-22T04:59:09.896Z,30.02
2023-04-22T05:01:36.574Z,29.67
2023-04-22T05:04:03.544Z,29.08
2023-04-22T05:06:31.435Z,28.70
2023-04-22T05:08:58.336Z,30.90
2023-04-22T05:11:25.186Z,28.13
2023-04-22T05:13:51.817Z,25.80
2023-04-22T05:16:18.461Z,27.92
2023-04-22T05:18:45.362Z,25.42
2023-04-22T05:21:11.968Z,27.40
2023-04-22T05:23:39.472Z,28.17
2023-04-22T05:26:06.186Z,29.25
2023-04-22T05:28:32.901Z,27.73
2023-04-22T05:30:59.560Z,27.95
2023-04-22T05:33:26.214Z,31.50
2023-04-22T05:35:53.616Z,30.80
2023-04-22T05:38:20.421Z,29.65
2023-04-22T05:40:47.157Z,30.83
2023-04-22T05:43:14.067Z,30.95
2023-04-22T05:45:40.858Z,31.90
2023-04-22T05:48:07.767Z,32.90
2023-04-22T05:50:34.593Z,31.10
2023-04-22T05:53:01.193Z,30.25
2023-04-22T05:55:27.941Z,31.00
2023-04-22T05:57:54.634Z,32.83
2023-04-22T06:00:21.303Z,33.22
2023-04-22T06:02:48.066Z,32.88
2023-04-22T06:05:14.968Z,32.88
2023-04-22T06:07:41.692Z,33.88
2023-04-22T06:10:09.143Z,35.50
2023-04-22T06:12:36.169Z,41.90
2023-04-22T06:15:03.149Z,37.28
2023-04-22T06:17:29.802Z,32.22
2023-04-22T06:19:56.529Z,34.83
2023-04-22T06:22:23.259Z,33.65
2023-04-22T06:24:49.976Z,33.58
2023-04-22T06:27:16.596Z,31.65
2023-04-22T06:29:43.337Z,31.75
2023-04-22T06:32:09.924Z,35.35
2023-04-22T06:34:38.590Z,29.58
2023-04-22T06:37:06.197Z,27.70
2023-04-22T06:39:32.847Z,35.03
2023-04-22T06:41:59.605Z,33.22
2023-04-22T06:44:26.376Z,28.33
2023-04-22T06:46:53.777Z,33.47
2023-04-22T06:49:21.859Z,25.90
2023-04-22T06:51:48.562Z,36.35
2023-04-22T06:54:15.186Z,38.75
2023-04-22T06:56:42.007Z,38.13
2023-04-22T06:59:08.795Z,34.83
2023-04-22T07:01:35.487Z,31.13
2023-04-22T07:04:02.231Z,27.23
2023-04-22T07:06:29.139Z,40.70
2023-04-22T07:08:55.901Z,41.05
2023-04-22T07:11:22.541Z,34.03
2023-04-22T07:13:49.176Z,35.85
2023-04-22T07:16:15.869Z,35.38
2023-04-22T07:18:42.498Z,36.80
2023-04-22T07:21:09.134Z,38.67
2023-04-22T07:23:35.890Z,39.25
2023-04-22T07:26:02.862Z,36.03
2023-04-22T07:28:29.683Z,35.25
2023-04-22T07:30:56.376Z,36.35
2023-04-22T07:33:23.177Z,30.27
2023-04-22T07:35:49.946Z,30.67
2023-04-22T07:38:16.746Z,25.83
2023-04-22T07:40:43.814Z,33.38
2023-04-22T07:43:10.533Z,36.83
2023-04-22T07:45:37.313Z,25.08
2023-04-22T07:48:04.848Z,32.72
2023-04-22T07:50:31.648Z,34.13
2023-04-22T07:52:58.417Z,28.88
2023-04-22T07:55:25.057Z,31.80
2023-04-22T07:57:51.764Z,28.25
2023-04-22T08:00:18.518Z,27.92
2023-04-22T08:02:46.825Z,28.58
2023-04-22T08:05:13.634Z,27.00
2023-04-22T08:07:40.457Z,26.00
2023-04-22T08:10:07.723Z,27.38
2023-04-22T08:12:35.083Z,24.85
2023-04-22T08:15:01.797Z,24.20
2023-04-22T08:17:28.560Z,23.17
2023-04-22T08:19:55.339Z,21.52
2023-04-22T08:22:23.811Z,20.55
2023-04-22T08:24:50.785Z,20.80
2023-04-22T08:27:19.204Z,22.27
2023-04-22T08:29:45.879Z,15.75
2023-04-22T08:32:12.574Z,20.38
2023-04-22T08:34:39.460Z,19.10
2023-04-22T08:37:06.143Z,18.67
2023-04-22T08:39:32.862Z,14.15
2023-04-22T08:41:59.713Z,18.70
2023-04-22T08:44:27.293Z,16.27
2023-04-22T08:46:55.858Z,16.35
2023-04-22T08:49:24.425Z,17.50
2023-04-22T08:51:51.209Z,14.40
2023-04-22T08:54:18.197Z,14.00
2023-04-22T08:56:45.800Z,14.38
2023-04-22T08:59:13.471Z,15.25
2023-04-22T09:01:41.195Z,13.57
2023-04-22T09:04:10.590Z,13.75
2023-04-22T09:06:38.806Z,13.57
2023-04-22T09:09:05.665Z,13.38
2023-04-22T09:11:33.645Z,12.10
2023-04-22T09:14:00.310Z,11.10
2023-04-22T09:16:26.981Z,7.40
2023-04-22T09:18:53.672Z,11.85
2023-04-22T09:21:20.348Z,10.85
2023-04-22T09:23:53.717Z,11.38
2023-04-22T09:26:23.419Z,10.80
2023-04-22T09:28:51.065Z,11.35
2023-04-22T09:31:18.321Z,10.00
2023-04-22T09:33:53.778Z,8.35
2023-04-22T09:36:27.602Z,8.93
2023-04-22T09:38:56.281Z,11.13
2023-04-22T09:41:35.376Z,10.30
2023-04-22T09:44:03.959Z,11.63
2023-04-22T09:46:31.781Z,10.57
2023-04-22T09:48:59.738Z,9.45
2023-04-22T09:51:30.328Z,8.77
2023-04-22T09:53:59.229Z,11.30
2023-04-22T09:56:50.809Z,10.80
2023-04-22T09:59:23.007Z,10.57
2023-04-22T10:01:53.212Z,10.40
2023-04-22T10:04:25.364Z,8.77
2023-04-22T10:06:53.114Z,9.05
2023-04-22T10:09:21.719Z,9.00
2023-04-22T10:11:50.831Z,8.45
2023-04-22T10:14:17.590Z,10.63
2023-04-22T10:16:46.990Z,9.70
2023-04-22T10:19:24.020Z,9.63
2023-04-22T10:21:55.651Z,9.10
2023-04-22T10:24:25.034Z,9.63
2023-04-22T10:26:59.701Z,9.77
2023-04-22T10:29:27.742Z,11.98
2023-04-22T10:32:07.939Z,10.57
2023-04-22T10:34:38.890Z,11.32
2023-04-22T10:37:09.040Z,12.23
2023-04-22T10:39:35.755Z,11.70
2023-04-22T10:42:10.945Z,12.52
2023-04-22T10:44:53.855Z,11.18
2023-04-22T10:47:29.868Z,11.95
2023-04-22T10:50:24.639Z,10.05
2023-04-22T10:53:18.616Z,9.85
2023-04-22T10:55:52.988Z,9.77
2023-04-22T10:58:20.675Z,11.85
2023-04-22T11:00:54.268Z,10.57
2023-04-22T11:03:29.617Z,11.13
2023-04-22T11:06:22.089Z,11.18
2023-04-22T11:08:50.233Z,12.05
2023-04-22T11:11:18.611Z,11.32
2023-04-22T11:13:47.396Z,11.40
2023-04-22T11:16:14.257Z,11.35
2023-04-22T11:18:41.103Z,5.55
2023-04-22T11:21:08.743Z,10.80
2023-04-22T11:23:36.633Z,11.35
2023-04-22T11:26:05.726Z,11.98
2023-04-22T11:28:33.016Z,12.15
2023-04-22T11:31:09.891Z,13.13
2023-04-22T11:33:39.105Z,11.63
2023-04-22T11:36:10.725Z,14.25
2023-04-22T11:38:37.516Z,12.68
2023-04-22T11:41:05.084Z,12.10
2023-04-22T11:43:31.716Z,11.25
2023-04-22T11:45:58.571Z,10.27
2023-04-22T11:48:25.250Z,13.35
2023-04-22T11:51:11.673Z,11.75
2023-04-22T11:53:40.121Z,12.25
2023-04-22T11:56:06.910Z,12.73
2023-04-22T11:58:33.562Z,11.75
2023-04-22T12:01:00.699Z,11.88
2023-04-22T12:03:31.139Z,11.38
2023-04-22T12:06:03.130Z,12.98
2023-04-22T12:08:34.108Z,13.20
2023-04-22T12:11:04.323Z,14.85
2023-04-22T12:13:38.282Z,15.48
2023-04-22T12:16:14.192Z,14.77
2023-04-22T12:19:03.457Z,15.30
2023-04-22T12:21:32.197Z,16.90
2023-04-22T12:24:01.059Z,13.95
2023-04-22T12:26:28.233Z,15.55
2023-04-22T12:28:57.752Z,15.60
2023-04-22T12:31:24.879Z,16.30
2023-04-22T12:33:52.220Z,17.48
2023-04-22T12:36:23.530Z,15.70
2023-04-22T12:38:51.194Z,14.95
2023-04-22T12:41:17.970Z,17.38
2023-04-22T12:43:44.829Z,12.80
2023-04-22T12:46:11.555Z,16.95
2023-04-22T12:48:38.422Z,18.13
2023-04-22T12:51:06.578Z,16.85
2023-04-22T12:53:33.483Z,18.60
2023-04-22T12:56:00.255Z,16.58
2023-04-22T12:58:26.989Z,15.75
2023-04-22T13:00:53.686Z,16.73
2023-04-22T13:03:20.779Z,13.63
2023-04-22T13:05:47.857Z,14.02
2023-04-22T13:08:14.802Z,14.88
2023-04-22T13:10:41.563Z,13.75
2023-04-22T13:15:39.012Z,15.52
2023-04-22T13:18:06.122Z,14.18
2023-04-22T13:20:32.989Z,15.63
2023-04-22T13:22:59.694Z,15.95
2023-04-22T13:25:26.437Z,14.52
2023-04-22T13:27:53.125Z,16.15
2023-04-22T13:30:20.087Z,15.98
2023-04-22T13:32:46.993Z,14.32
2023-04-22T13:35:13.758Z,16.08
2023-04-22T13:37:40.498Z,17.10
2023-04-22T13:40:08.286Z,16.45
2023-04-22T13:42:35.270Z,15.90
2023-04-22T13:45:01.915Z,16.73
2023-04-22T13:47:28.621Z,16.73
2023-04-22T13:49:55.397Z,16.05
2023-04-22T13:52:22.130Z,16.75
2023-04-22T13:54:48.843Z,16.30
2023-04-22T13:57:15.545Z,16.92
2023-04-22T13:59:42.471Z,20.88
2023-04-22T14:02:09.518Z,18.20
2023-04-22T14:04:36.418Z,14.52
2023-04-22T14:07:03.903Z,15.82
2023-04-22T14:09:30.703Z,15.95
2023-04-22T14:11:57.467Z,13.60
2023-04-22T14:14:24.217Z,16.88
2023-04-22T14:16:51.793Z,14.75
2023-04-22T14:19:18.694Z,17.25
2023-04-22T14:21:45.683Z,17.30
2023-04-22T14:24:12.501Z,16.17
2023-04-22T14:26:39.268Z,16.30
2023-04-22T14:29:06.009Z,21.45
2023-04-22T14:31:32.657Z,20.27
2023-04-22T14:33:59.322Z,20.15
2023-04-22T14:36:26.800Z,19.13
2023-04-22T14:38:53.480Z,21.85
2023-04-22T14:41:21.329Z,19.02
2023-04-22T14:43:48.031Z,18.58
2023-04-22T14:46:14.762Z,19.70
2023-04-22T14:48:41.550Z,16.45
2023-04-22T14:51:08.259Z,19.58
2023-04-22T14:53:34.950Z,21.00
2023-04-22T14:56:01.607Z,20.52
2023-04-22T14:58:31.432Z,15.68
2023-04-22T15:01:01.373Z,17.27
2023-04-22T15:03:28.199Z,12.63
2023-04-22T15:05:55.617Z,13.70
2023-04-22T15:08:25.087Z,14.57
2023-04-22T15:10:51.747Z,11.85
2023-04-22T15:13:19.516Z,14.38
2023-04-22T15:15:46.733Z,13.75
2023-04-22T15:18:13.516Z,12.63
2023-04-22T15:20:40.488Z,14.57
2023-04-22T15:23:07.098Z,12.38
2023-04-22T15:25:33.821Z,13.98
2023-04-22T15:28:00.592Z,11.80
2023-04-22T15:30:27.320Z,12.25
2023-04-22T15:32:54.042Z,10.10
2023-04-22T15:35:24.517Z,14.52
2023-04-22T15:37:52.534Z,11.55
2023-04-22T15:40:19.286Z,11.55
2023-04-22T15:42:45.929Z,11.23
2023-04-22T15:45:12.597Z,11.15
2023-04-22T15:47:41.140Z,13.20
2023-04-22T15:50:09.661Z,13.73
2023-04-22T15:52:38.011Z,12.98
2023-04-22T15:55:07.451Z,12.13
2023-04-22T15:57:35.243Z,13.68
2023-04-22T16:00:12.025Z,12.43
2023-04-22T16:02:40.595Z,15.10
2023-04-22T16:05:08.252Z,13.00
2023-04-22T16:07:35.226Z,16.08
2023-04-22T16:10:02.300Z,14.52
2023-04-22T16:12:29.597Z,15.55
2023-04-22T16:14:56.808Z,16.25
2023-04-22T16:17:23.698Z,19.00
2023-04-22T16:19:50.494Z,19.35
2023-04-22T16:22:17.089Z,13.65
2023-04-22T16:24:44.437Z,20.02
2023-04-22T16:27:16.133Z,17.80
2023-04-22T16:29:43.359Z,21.13
2023-04-22T16:32:10.440Z,21.05
2023-04-22T16:34:38.060Z,22.52
2023-04-22T16:37:04.862Z,20.42
2023-04-22T16:39:31.558Z,19.13
2023-04-22T16:41:59.110Z,22.25
2023-04-22T16:44:25.982Z,23.58
2023-04-22T16:46:52.730Z,25.52
2023-04-22T16:49:19.643Z,22.23
2023-04-22T16:51:46.470Z,24.85
2023-04-22T16:54:13.210Z,21.80
2023-04-22T16:56:39.968Z,20.70
2023-04-22T16:59:06.653Z,25.08
2023-04-22T17:01:33.518Z,23.20
2023-04-22T17:04:00.905Z,16.02
2023-04-22T17:06:28.310Z,26.27
2023-04-22T17:08:55.068Z,24.42
2023-04-22T17:11:22.908Z,18.55
2023-04-22T17:13:49.691Z,26.23
2023-04-22T17:16:16.371Z,30.17
2023-04-22T17:18:43.236Z,19.70
2023-04-22T17:21:10.121Z,18.00
2023-04-22T17:23:36.826Z,26.13
2023-04-22T17:26:03.431Z,24.65
2023-04-22T17:28:30.251Z,29.58
2023-04-22T17:30:56.999Z,27.45
2023-04-22T17:33:23.648Z,28.70
2023-04-22T17:35:50.391Z,30.67
2023-04-22T17:38:17.079Z,27.42
2023-04-22T17:40:44.753Z,25.02
2023-04-22T17:43:11.444Z,32.08
2023-04-22T17:45:38.072Z,19.88
2023-04-22T17:48:04.727Z,28.88
2023-04-22T17:50:31.412Z,26.13
2023-04-22T17:52:58.151Z,29.45
2023-04-22T17:55:25.115Z,32.78
2023-04-22T17:57:51.987Z,11.90
2023-04-22T18:00:18.880Z,26.98
2023-04-22T18:02:46.142Z,26.20
2023-04-22T18:05:13.012Z,30.17
2023-04-22T18:07:40.281Z,26.55
2023-04-22T18:10:07.714Z,24.10
2023-04-22T18:12:34.869Z,28.73
2023-04-22T18:15:02.004Z,30.05
2023-04-22T18:17:29.097Z,29.60
2023-04-22T18:20:09.859Z,25.30
2023-04-22T18:25:08.554Z,21.33
2023-04-22T18:27:35.640Z,21.27
2023-04-22T18:30:02.720Z,24.02
2023-04-22T18:32:29.928Z,21.40
2023-04-22T18:34:57.002Z,22.40
2023-04-22T18:37:24.700Z,20.52
2023-04-22T18:39:51.798Z,20.50
2023-04-22T18:42:19.018Z,21.00
2023-04-22T18:44:46.067Z,20.52
2023-04-22T18:47:13.188Z,19.92
2023-04-22T18:49:40.225Z,19.23
2023-04-22T18:52:07.292Z,19.63
2023-04-22T18:54:34.380Z,19.02
2023-04-22T18:57:02.261Z,17.27
2023-04-22T18:59:29.367Z,19.02
2023-04-22T19:01:56.523Z,20.98
2023-04-22T19:04:23.619Z,20.08
2023-04-22T19:06:50.802Z,21.52
2023-04-22T19:09:17.952Z,19.90
2023-04-22T19:11:45.100Z,20.80
2023-04-22T19:14:13.692Z,22.10
2023-04-22T19:16:41.023Z,23.45
2023-04-22T19:19:08.110Z,22.73
2023-04-22T19:21:35.336Z,22.55
2023-04-22T19:24:02.463Z,20.73
2023-04-22T19:26:29.670Z,22.38
2023-04-22T19:28:56.777Z,23.85
2023-04-22T19:31:24.053Z,27.10
2023-04-22T19:33:51.360Z,27.50
2023-04-22T19:36:18.577Z,26.25
2023-04-22T19:38:45.814Z,27.08
2023-04-22T19:41:13.504Z,25.40
2023-04-22T19:43:40.765Z,26.13
2023-04-22T19:46:08.190Z,26.00
2023-04-22T19:48:36.223Z,29.73
2023-04-22T19:51:03.474Z,30.77
2023-04-22T19:53:31.561Z,29.05
2023-04-22T19:55:58.610Z,30.30
2023-04-22T19:58:25.765Z,28.05
2023-04-22T20:00:52.990Z,28.08
2023-04-22T20:03:20.130Z,27.45
2023-04-22T20:05:49.035Z,28.35
2023-04-22T20:08:19.428Z,28.80
2023-04-22T20:10:49.168Z,29.90
2023-04-22T20:13:16.487Z,30.15
2023-04-22T20:15:43.347Z,29.20
2023-04-22T20:18:10.653Z,27.30
2023-04-22T20:20:38.628Z,27.70
2023-04-22T20:23:10.286Z,25.52
2023-04-22T20:25:39.732Z,27.48
2023-04-22T20:28:07.275Z,25.40
2023-04-22T20:30:34.486Z,24.88
2023-04-22T20:33:01.360Z,25.80
2023-04-22T20:35:28.519Z,24.42
2023-04-22T20:37:59.298Z,23.92
2023-04-22T20:40:27.147Z,27.23
2023-04-22T20:42:57.136Z,26.80
2023-04-22T20:45:24.719Z,24.98
2023-04-22T20:47:52.010Z,25.52
2023-04-22T20:50:19.010Z,23.35
2023-04-22T20:52:45.673Z,22.52
2023-04-22T20:55:12.560Z,22.65
2023-04-22T20:57:39.387Z,24.33
2023-04-22T21:00:07.314Z,24.15
2023-04-22T21:02:35.293Z,24.27
2023-04-22T21:05:03.864Z,23.98
2023-04-22T21:07:30.934Z,28.08
2023-04-22T21:09:58.383Z,26.48
2023-04-22T21:12:25.743Z,27.42
2023-04-22T21:14:52.776Z,28.08
2023-04-22T21:17:22.765Z,26.48
2023-04-22T21:19:50.742Z,25.92
2023-04-22T21:22:21.105Z,27.48
2023-04-22T21:24:52.090Z,27.63
2023-04-22T21:27:22.082Z,24.30
2023-04-22T21:29:49.647Z,27.08
2023-04-22T21:32:17.439Z,28.77
2023-04-22T21:34:44.907Z,28.40
2023-04-22T21:37:12.641Z,29.38
2023-04-22T21:39:40.393Z,28.90
2023-04-22T21:42:09.834Z,30.73
2023-04-22T21:44:37.766Z,31.60
2023-04-22T21:47:05.486Z,33.17
2023-04-22T21:49:32.214Z,35.95
2023-04-22T21:51:59.113Z,33.78
2023-04-22T21:54:25.807Z,36.28
2023-04-22T21:56:52.547Z,35.22
2023-04-22T21:59:19.283Z,35.45
2023-04-22T22:01:45.978Z,35.28
2023-04-22T22:04:15.382Z,35.25
2023-04-22T22:06:43.361Z,36.83
2023-04-22T22:09:11.569Z,37.55
2023-04-22T22:11:38.374Z,38.13
2023-04-22T22:14:05.148Z,38.35
2023-04-22T22:16:31.956Z,37.45
2023-04-22T22:18:58.735Z,41.55
2023-04-22T22:21:25.385Z,40.50
2023-04-22T22:23:52.207Z,43.22
2023-04-22T22:26:19.260Z,39.40
2023-04-22T22:28:45.934Z,37.58
2023-04-22T22:31:12.662Z,38.47
2023-04-22T22:33:39.338Z,43.33
2023-04-22T22:36:06.408Z,44.67
2023-04-22T22:38:33.124Z,41.90
2023-04-22T22:40:59.806Z,46.05
2023-04-22T22:43:26.855Z,47.72
2023-04-22T22:45:53.591Z,46.38
2023-04-22T22:48:20.388Z,40.85
2023-04-22T22:50:47.134Z,39.92
2023-04-22T22:53:13.938Z,39.10
2023-04-22T22:55:40.707Z,47.17
2023-04-22T22:58:07.353Z,42.42
2023-04-22T23:00:34.019Z,46.13
2023-04-22T23:03:00.891Z,44.00
2023-04-22T23:05:27.910Z,43.97
2023-04-22T23:07:54.501Z,44.65
2023-04-22T23:10:21.300Z,41.05
2023-04-22T23:12:48.021Z,42.65
2023-04-22T23:15:14.612Z,41.88
2023-04-22T23:17:41.505Z,42.92
2023-04-22T23:20:11.969Z,46.22
2023-04-22T23:22:42.565Z,47.35
2023-04-22T23:25:10.158Z,40.72
2023-04-22T23:27:37.155Z,43.78
2023-04-22T23:30:04.729Z,43.13
2023-04-22T23:32:33.032Z,40.83
2023-04-22T23:35:01.718Z,41.17
2023-04-22T23:37:29.486Z,47.03
2023-04-22T23:39:56.304Z,46.70
2023-04-22T23:42:23.059Z,46.83
2023-04-22T23:44:49.841Z,42.63
2023-04-22T23:47:16.948Z,44.03
2023-04-22T23:49:43.859Z,41.63
2023-04-22T23:52:12.684Z,37.83
2023-04-22T23:54:40.265Z,44.95
2023-04-22T23:57:07.455Z,46.88
2023-04-22T23:59:34.335Z,41.17
